sensor_id;sensor_type;location;lat;lon;timestamp;temperature;humidity
18932;DHT22;9598;50.954;3.112;2023-07-09T00:00:00;24.20;99.90
18932;DHT22;9598;50.954;3.112;2023-07-09T00:05:03;24.20;99.90
18932;DHT22;9598;50.954;3.112;2023-07-09T00:10:14;24.20;99.90
18932;DHT22;9598;50.954;3.112;2023-07-09T00:15:17;24.20;99.90
18932;DHT22;9598;50.954;3.112;2023-07-09T00:20:20;24.10;99.90
18932;DHT22;9598;50.954;3.112;2023-07-09T00:25:22;24.10;99.90
18932;DHT22;9598;50.954;3.112;2023-07-09T00:30:26;24.20;99.90
18932;DHT22;9598;50.954;3.112;2023-07-09T00:35:28;24.10;99.90
18932;DHT22;9598;50.954;3.112;2023-07-09T00:40:31;24.10;99.90
18932;DHT22;9598;50.954;3.112;2023-07-09T00:45:35;24.10;99.90
18932;DHT22;9598;50.954;3.112;2023-07-09T00:50:41;24.00;99.90
18932;DHT22;9598;50.954;3.112;2023-07-09T00:55:51;24.00;99.90
18932;DHT22;9598;50.954;3.112;2023-07-09T01:01:00;24.00;99.90
18932;DHT22;9598;50.954;3.112;2023-07-09T01:06:02;24.00;99.90
18932;DHT22;9598;50.954;3.112;2023-07-09T01:11:13;24.00;99.90
18932;DHT22;9598;50.954;3.112;2023-07-09T01:16:19;23.90;99.90
18932;DHT22;9598;50.954;3.112;2023-07-09T01:21:26;23.80;99.90
18932;DHT22;9598;50.954;3.112;2023-07-09T01:26:28;23.70;99.90
18932;DHT22;9598;50.954;3.112;2023-07-09T01:31:32;23.70;99.90
18932;DHT22;9598;50.954;3.112;2023-07-09T01:36:35;23.70;99.90
18932;DHT22;9598;50.954;3.112;2023-07-09T01:41:40;23.70;99.90
18932;DHT22;9598;50.954;3.112;2023-07-09T01:46:42;23.70;99.90
18932;DHT22;9598;50.954;3.112;2023-07-09T01:51:47;23.70;99.90
18932;DHT22;9598;50.954;3.112;2023-07-09T01:56:50;23.60;99.90
18932;DHT22;9598;50.954;3.112;2023-07-09T02:01:52;23.60;99.90
18932;DHT22;9598;50.954;3.112;2023-07-09T02:06:59;23.60;99.90
18932;DHT22;9598;50.954;3.112;2023-07-09T02:12:01;23.60;99.90
18932;DHT22;9598;50.954;3.112;2023-07-09T02:17:04;23.60;99.90
18932;DHT22;9598;50.954;3.112;2023-07-09T02:22:09;23.60;99.90
18932;DHT22;9598;50.954;3.112;2023-07-09T02:27:17;23.60;99.90
18932;DHT22;9598;50.954;3.112;2023-07-09T02:32:21;23.50;99.90
18932;DHT22;9598;50.954;3.112;2023-07-09T02:37:26;23.60;99.90
18932;DHT22;9598;50.954;3.112;2023-07-09T02:42:28;23.60;99.90
18932;DHT22;9598;50.954;3.112;2023-07-09T02:47:30;23.60;99.90
18932;DHT22;9598;50.954;3.112;2023-07-09T02:52:35;23.50;99.90
18932;DHT22;9598;50.954;3.112;2023-07-09T02:57:37;23.40;99.90
18932;DHT22;9598;50.954;3.112;2023-07-09T03:02:39;23.50;99.90
18932;DHT22;9598;50.954;3.112;2023-07-09T03:07:43;23.40;99.90
18932;DHT22;9598;50.954;3.112;2023-07-09T03:12:45;23.30;99.90
18932;DHT22;9598;50.954;3.112;2023-07-09T03:17:47;23.30;99.90
18932;DHT22;9598;50.954;3.112;2023-07-09T03:22:50;23.20;99.90
18932;DHT22;9598;50.954;3.112;2023-07-09T03:27:53;23.10;99.90
18932;DHT22;9598;50.954;3.112;2023-07-09T03:32:55;23.10;99.90
18932;DHT22;9598;50.954;3.112;2023-07-09T03:37:58;23.10;99.90
18932;DHT22;9598;50.954;3.112;2023-07-09T03:43:00;23.00;99.90
18932;DHT22;9598;50.954;3.112;2023-07-09T03:48:03;23.00;99.90
18932;DHT22;9598;50.954;3.112;2023-07-09T03:53:07;22.90;99.90
18932;DHT22;9598;50.954;3.112;2023-07-09T03:58:09;22.90;99.90
18932;DHT22;9598;50.954;3.112;2023-07-09T04:03:11;22.80;99.90
18932;DHT22;9598;50.954;3.112;2023-07-09T04:08:15;22.80;99.90
18932;DHT22;9598;50.954;3.112;2023-07-09T04:13:17;22.80;99.90
18932;DHT22;9598;50.954;3.112;2023-07-09T04:18:19;22.70;99.90
18932;DHT22;9598;50.954;3.112;2023-07-09T04:23:23;22.80;99.90
18932;DHT22;9598;50.954;3.112;2023-07-09T04:28:25;22.70;99.90
18932;DHT22;9598;50.954;3.112;2023-07-09T04:33:27;22.70;99.90
18932;DHT22;9598;50.954;3.112;2023-07-09T04:38:30;22.70;99.90
18932;DHT22;9598;50.954;3.112;2023-07-09T04:43:32;22.70;99.90
18932;DHT22;9598;50.954;3.112;2023-07-09T04:48:34;22.70;99.90
18932;DHT22;9598;50.954;3.112;2023-07-09T04:53:38;22.60;99.90
18932;DHT22;9598;50.954;3.112;2023-07-09T04:58:40;22.60;99.90
18932;DHT22;9598;50.954;3.112;2023-07-09T05:03:42;22.50;99.90
18932;DHT22;9598;50.954;3.112;2023-07-09T05:08:45;22.50;99.90
18932;DHT22;9598;50.954;3.112;2023-07-09T05:13:48;22.60;99.90
18932;DHT22;9598;50.954;3.112;2023-07-09T05:18:50;22.60;99.90
18932;DHT22;9598;50.954;3.112;2023-07-09T05:23:54;22.50;99.90
18932;DHT22;9598;50.954;3.112;2023-07-09T05:28:56;22.60;99.90
18932;DHT22;9598;50.954;3.112;2023-07-09T05:33:59;22.60;99.90
18932;DHT22;9598;50.954;3.112;2023-07-09T05:39:03;22.60;99.90
18932;DHT22;9598;50.954;3.112;2023-07-09T05:44:05;22.70;99.90
18932;DHT22;9598;50.954;3.112;2023-07-09T05:49:07;22.80;99.90
18932;DHT22;9598;50.954;3.112;2023-07-09T05:54:11;22.90;99.90
18932;DHT22;9598;50.954;3.112;2023-07-09T05:59:13;23.00;99.90
18932;DHT22;9598;50.954;3.112;2023-07-09T06:04:15;23.10;99.90
18932;DHT22;9598;50.954;3.112;2023-07-09T06:09:18;23.20;99.90
18932;DHT22;9598;50.954;3.112;2023-07-09T06:14:20;23.40;99.90
18932;DHT22;9598;50.954;3.112;2023-07-09T06:19:22;23.50;99.90
18932;DHT22;9598;50.954;3.112;2023-07-09T06:24:26;23.60;99.90
18932;DHT22;9598;50.954;3.112;2023-07-09T06:29:28;23.80;99.90
18932;DHT22;9598;50.954;3.112;2023-07-09T06:34:30;23.90;99.90
18932;DHT22;9598;50.954;3.112;2023-07-09T06:39:34;23.90;99.90
18932;DHT22;9598;50.954;3.112;2023-07-09T06:44:36;23.80;99.90
18932;DHT22;9598;50.954;3.112;2023-07-09T06:49:38;23.90;99.90
18932;DHT22;9598;50.954;3.112;2023-07-09T06:54:41;24.00;99.90
18932;DHT22;9598;50.954;3.112;2023-07-09T06:59:43;24.10;99.90
18932;DHT22;9598;50.954;3.112;2023-07-09T07:04:46;24.10;99.90
18932;DHT22;9598;50.954;3.112;2023-07-09T07:09:49;24.20;99.90
18932;DHT22;9598;50.954;3.112;2023-07-09T07:14:51;24.30;99.90
18932;DHT22;9598;50.954;3.112;2023-07-09T07:19:54;24.40;99.90
18932;DHT22;9598;50.954;3.112;2023-07-09T07:24:57;24.60;99.90
18932;DHT22;9598;50.954;3.112;2023-07-09T07:29:59;24.60;99.90
18932;DHT22;9598;50.954;3.112;2023-07-09T07:35:01;24.80;99.90
18932;DHT22;9598;50.954;3.112;2023-07-09T07:40:06;24.90;99.90
18932;DHT22;9598;50.954;3.112;2023-07-09T07:45:09;25.10;99.90
18932;DHT22;9598;50.954;3.112;2023-07-09T07:50:11;25.30;99.90
18932;DHT22;9598;50.954;3.112;2023-07-09T07:55:15;25.50;99.90
18932;DHT22;9598;50.954;3.112;2023-07-09T08:00:19;25.60;99.90
18932;DHT22;9598;50.954;3.112;2023-07-09T08:05:21;25.70;99.90
18932;DHT22;9598;50.954;3.112;2023-07-09T08:10:25;25.80;99.90
18932;DHT22;9598;50.954;3.112;2023-07-09T08:15:28;26.10;99.90
18932;DHT22;9598;50.954;3.112;2023-07-09T08:20:30;26.20;99.90
18932;DHT22;9598;50.954;3.112;2023-07-09T08:25:35;26.30;99.90
18932;DHT22;9598;50.954;3.112;2023-07-09T08:30:37;26.50;99.90
18932;DHT22;9598;50.954;3.112;2023-07-09T08:35:42;26.60;99.90
18932;DHT22;9598;50.954;3.112;2023-07-09T08:40:54;26.60;99.90
18932;DHT22;9598;50.954;3.112;2023-07-09T08:46:02;26.70;99.90
18932;DHT22;9598;50.954;3.112;2023-07-09T08:51:10;26.80;99.90
18932;DHT22;9598;50.954;3.112;2023-07-09T08:56:16;26.90;99.90
18932;DHT22;9598;50.954;3.112;2023-07-09T09:01:20;26.90;99.90
18932;DHT22;9598;50.954;3.112;2023-07-09T09:06:27;27.00;99.90
18932;DHT22;9598;50.954;3.112;2023-07-09T09:11:42;27.10;99.90
18932;DHT22;9598;50.954;3.112;2023-07-09T09:16:46;27.30;99.90
18932;DHT22;9598;50.954;3.112;2023-07-09T09:21:56;27.20;99.90
18932;DHT22;9598;50.954;3.112;2023-07-09T09:27:00;27.10;99.90
18932;DHT22;9598;50.954;3.112;2023-07-09T09:32:17;27.00;99.90
18932;DHT22;9598;50.954;3.112;2023-07-09T09:37:27;26.80;99.90
18932;DHT22;9598;50.954;3.112;2023-07-09T09:42:32;26.70;99.90
18932;DHT22;9598;50.954;3.112;2023-07-09T09:47:34;26.60;99.90
18932;DHT22;9598;50.954;3.112;2023-07-09T09:52:37;26.60;99.90
18932;DHT22;9598;50.954;3.112;2023-07-09T09:57:47;26.40;99.90
18932;DHT22;9598;50.954;3.112;2023-07-09T10:02:56;26.40;99.90
18932;DHT22;9598;50.954;3.112;2023-07-09T10:08:02;26.30;99.90
18932;DHT22;9598;50.954;3.112;2023-07-09T10:13:13;26.10;99.90
18932;DHT22;9598;50.954;3.112;2023-07-09T10:18:29;25.90;99.90
18932;DHT22;9598;50.954;3.112;2023-07-09T10:23:39;25.70;99.90
18932;DHT22;9598;50.954;3.112;2023-07-09T10:29:03;25.40;99.90
18932;DHT22;9598;50.954;3.112;2023-07-09T10:34:17;25.20;99.90
18932;DHT22;9598;50.954;3.112;2023-07-09T10:39:28;25.10;99.90
18932;DHT22;9598;50.954;3.112;2023-07-09T10:44:36;24.90;99.90
18932;DHT22;9598;50.954;3.112;2023-07-09T10:49:42;24.80;99.90
18932;DHT22;9598;50.954;3.112;2023-07-09T10:54:54;24.60;99.90
18932;DHT22;9598;50.954;3.112;2023-07-09T10:59:58;24.60;99.90
18932;DHT22;9598;50.954;3.112;2023-07-09T11:05:02;24.70;99.90
18932;DHT22;9598;50.954;3.112;2023-07-09T11:10:10;24.80;99.90
18932;DHT22;9598;50.954;3.112;2023-07-09T11:15:30;25.10;99.90
18932;DHT22;9598;50.954;3.112;2023-07-09T11:20:34;25.30;99.90
18932;DHT22;9598;50.954;3.112;2023-07-09T11:25:44;25.20;99.90
18932;DHT22;9598;50.954;3.112;2023-07-09T11:30:50;25.20;99.90
18932;DHT22;9598;50.954;3.112;2023-07-09T11:36:06;25.10;99.90
18932;DHT22;9598;50.954;3.112;2023-07-09T11:41:26;25.00;99.90
18932;DHT22;9598;50.954;3.112;2023-07-09T11:46:29;24.90;99.90
18932;DHT22;9598;50.954;3.112;2023-07-09T11:51:37;24.80;99.90
18932;DHT22;9598;50.954;3.112;2023-07-09T11:56:41;24.70;99.90
18932;DHT22;9598;50.954;3.112;2023-07-09T12:01:46;24.80;99.90
18932;DHT22;9598;50.954;3.112;2023-07-09T12:06:51;24.80;99.90
18932;DHT22;9598;50.954;3.112;2023-07-09T12:11:54;24.80;99.90
18932;DHT22;9598;50.954;3.112;2023-07-09T12:16:57;24.90;99.90
18932;DHT22;9598;50.954;3.112;2023-07-09T12:22:00;25.00;99.90
18932;DHT22;9598;50.954;3.112;2023-07-09T12:27:15;25.10;99.90
18932;DHT22;9598;50.954;3.112;2023-07-09T12:32:20;25.10;99.90
18932;DHT22;9598;50.954;3.112;2023-07-09T12:37:25;25.10;99.90
18932;DHT22;9598;50.954;3.112;2023-07-09T12:42:30;25.20;99.90
18932;DHT22;9598;50.954;3.112;2023-07-09T12:47:34;25.40;99.90
18932;DHT22;9598;50.954;3.112;2023-07-09T12:52:45;25.70;99.90
18932;DHT22;9598;50.954;3.112;2023-07-09T12:57:48;25.80;99.90
18932;DHT22;9598;50.954;3.112;2023-07-09T13:02:55;25.80;99.90
18932;DHT22;9598;50.954;3.112;2023-07-09T13:07:59;25.60;99.90
18932;DHT22;9598;50.954;3.112;2023-07-09T13:13:03;25.40;99.90
18932;DHT22;9598;50.954;3.112;2023-07-09T13:18:10;25.30;99.90
18932;DHT22;9598;50.954;3.112;2023-07-09T13:23:14;25.40;99.90
18932;DHT22;9598;50.954;3.112;2023-07-09T13:28:18;25.30;99.90
18932;DHT22;9598;50.954;3.112;2023-07-09T13:33:23;25.30;99.90
18932;DHT22;9598;50.954;3.112;2023-07-09T13:38:25;25.30;99.90
18932;DHT22;9598;50.954;3.112;2023-07-09T13:43:30;25.30;99.90
18932;DHT22;9598;50.954;3.112;2023-07-09T13:48:35;25.30;99.90
18932;DHT22;9598;50.954;3.112;2023-07-09T13:53:37;25.10;99.90
18932;DHT22;9598;50.954;3.112;2023-07-09T13:58:39;25.20;99.90
18932;DHT22;9598;50.954;3.112;2023-07-09T14:03:43;25.30;99.90
18932;DHT22;9598;50.954;3.112;2023-07-09T14:08:45;25.50;99.90
18932;DHT22;9598;50.954;3.112;2023-07-09T14:13:47;25.60;99.90
18932;DHT22;9598;50.954;3.112;2023-07-09T14:18:51;25.60;99.90
18932;DHT22;9598;50.954;3.112;2023-07-09T14:23:54;25.50;99.90
18932;DHT22;9598;50.954;3.112;2023-07-09T14:28:56;25.40;99.90
18932;DHT22;9598;50.954;3.112;2023-07-09T14:34:20;25.30;99.90
18932;DHT22;9598;50.954;3.112;2023-07-09T14:39:25;25.30;99.90
18932;DHT22;9598;50.954;3.112;2023-07-09T14:44:28;25.30;99.90
18932;DHT22;9598;50.954;3.112;2023-07-09T14:49:32;25.30;99.90
18932;DHT22;9598;50.954;3.112;2023-07-09T14:54:34;25.30;99.90
18932;DHT22;9598;50.954;3.112;2023-07-09T14:59:37;25.40;99.90
18932;DHT22;9598;50.954;3.112;2023-07-09T15:04:41;25.40;99.90
18932;DHT22;9598;50.954;3.112;2023-07-09T15:09:43;25.60;99.90
18932;DHT22;9598;50.954;3.112;2023-07-09T15:14:46;25.70;99.90
18932;DHT22;9598;50.954;3.112;2023-07-09T15:19:49;25.70;99.90
18932;DHT22;9598;50.954;3.112;2023-07-09T15:24:51;25.70;99.90
18932;DHT22;9598;50.954;3.112;2023-07-09T15:29:54;25.70;99.90
18932;DHT22;9598;50.954;3.112;2023-07-09T15:34:57;25.70;99.90
18932;DHT22;9598;50.954;3.112;2023-07-09T15:39:59;25.70;99.90
18932;DHT22;9598;50.954;3.112;2023-07-09T15:45:02;25.70;99.90
18932;DHT22;9598;50.954;3.112;2023-07-09T15:50:13;25.80;99.90
18932;DHT22;9598;50.954;3.112;2023-07-09T15:55:18;25.70;99.90
18932;DHT22;9598;50.954;3.112;2023-07-09T16:00:22;25.60;99.90
18932;DHT22;9598;50.954;3.112;2023-07-09T16:05:28;25.50;99.90
18932;DHT22;9598;50.954;3.112;2023-07-09T16:10:30;25.40;99.90
18932;DHT22;9598;50.954;3.112;2023-07-09T16:15:33;25.20;99.90
18932;DHT22;9598;50.954;3.112;2023-07-09T16:20:36;25.00;99.90
18932;DHT22;9598;50.954;3.112;2023-07-09T16:25:38;25.00;99.90
18932;DHT22;9598;50.954;3.112;2023-07-09T16:30:41;24.90;99.90
18932;DHT22;9598;50.954;3.112;2023-07-09T16:35:44;24.90;99.90
18932;DHT22;9598;50.954;3.112;2023-07-09T16:40:47;25.00;99.90
18932;DHT22;9598;50.954;3.112;2023-07-09T16:45:49;25.10;99.90
18932;DHT22;9598;50.954;3.112;2023-07-09T16:50:54;25.10;99.90
18932;DHT22;9598;50.954;3.112;2023-07-09T16:55:57;25.10;99.90
18932;DHT22;9598;50.954;3.112;2023-07-09T17:01:00;25.10;99.90
18932;DHT22;9598;50.954;3.112;2023-07-09T17:06:03;25.00;99.90
18932;DHT22;9598;50.954;3.112;2023-07-09T17:11:08;24.90;99.90
18932;DHT22;9598;50.954;3.112;2023-07-09T17:16:10;24.90;99.90
18932;DHT22;9598;50.954;3.112;2023-07-09T17:21:14;24.80;99.90
18932;DHT22;9598;50.954;3.112;2023-07-09T17:26:16;24.80;99.90
18932;DHT22;9598;50.954;3.112;2023-07-09T17:31:21;24.70;99.90
18932;DHT22;9598;50.954;3.112;2023-07-09T17:36:25;24.70;99.90
18932;DHT22;9598;50.954;3.112;2023-07-09T17:41:27;24.60;99.90
18932;DHT22;9598;50.954;3.112;2023-07-09T17:46:29;24.50;99.90
18932;DHT22;9598;50.954;3.112;2023-07-09T17:51:32;24.30;99.90
18932;DHT22;9598;50.954;3.112;2023-07-09T17:56:35;24.10;99.90
18932;DHT22;9598;50.954;3.112;2023-07-09T18:01:37;24.10;99.90
18932;DHT22;9598;50.954;3.112;2023-07-09T18:06:40;24.10;99.90
18932;DHT22;9598;50.954;3.112;2023-07-09T18:11:51;24.00;99.90
18932;DHT22;9598;50.954;3.112;2023-07-09T18:16:54;24.00;99.90
18932;DHT22;9598;50.954;3.112;2023-07-09T18:22:00;24.00;99.90
18932;DHT22;9598;50.954;3.112;2023-07-09T18:27:03;24.10;99.90
18932;DHT22;9598;50.954;3.112;2023-07-09T18:32:14;24.10;99.90
18932;DHT22;9598;50.954;3.112;2023-07-09T18:37:19;24.10;99.90
18932;DHT22;9598;50.954;3.112;2023-07-09T18:42:24;24.10;99.90
18932;DHT22;9598;50.954;3.112;2023-07-09T18:47:26;24.10;99.90
18932;DHT22;9598;50.954;3.112;2023-07-09T18:52:30;24.10;99.90
18932;DHT22;9598;50.954;3.112;2023-07-09T18:57:32;24.10;99.90
18932;DHT22;9598;50.954;3.112;2023-07-09T19:02:34;24.20;99.90
18932;DHT22;9598;50.954;3.112;2023-07-09T19:07:38;24.20;99.90
18932;DHT22;9598;50.954;3.112;2023-07-09T19:12:42;24.20;99.90
18932;DHT22;9598;50.954;3.112;2023-07-09T19:17:44;24.20;99.90
18932;DHT22;9598;50.954;3.112;2023-07-09T19:22:48;24.20;99.90
18932;DHT22;9598;50.954;3.112;2023-07-09T19:27:52;24.00;99.90
18932;DHT22;9598;50.954;3.112;2023-07-09T19:32:57;23.80;99.90
18932;DHT22;9598;50.954;3.112;2023-07-09T19:38:01;23.70;99.90
18932;DHT22;9598;50.954;3.112;2023-07-09T19:43:03;23.60;99.90
18932;DHT22;9598;50.954;3.112;2023-07-09T19:48:10;23.50;99.90
18932;DHT22;9598;50.954;3.112;2023-07-09T19:53:18;23.40;99.90
18932;DHT22;9598;50.954;3.112;2023-07-09T19:58:21;23.30;99.90
18932;DHT22;9598;50.954;3.112;2023-07-09T20:03:25;23.20;99.90
18932;DHT22;9598;50.954;3.112;2023-07-09T20:08:29;23.10;99.90
18932;DHT22;9598;50.954;3.112;2023-07-09T20:13:33;23.00;99.90
18932;DHT22;9598;50.954;3.112;2023-07-09T20:18:35;22.90;99.90
18932;DHT22;9598;50.954;3.112;2023-07-09T20:23:39;22.90;99.90
18932;DHT22;9598;50.954;3.112;2023-07-09T20:28:41;22.90;99.90
18932;DHT22;9598;50.954;3.112;2023-07-09T20:33:44;22.90;99.90
18932;DHT22;9598;50.954;3.112;2023-07-09T20:38:49;22.80;99.90
18932;DHT22;9598;50.954;3.112;2023-07-09T20:43:51;22.80;99.90
18932;DHT22;9598;50.954;3.112;2023-07-09T20:48:55;22.70;99.90
18932;DHT22;9598;50.954;3.112;2023-07-09T20:54:01;22.70;99.90
18932;DHT22;9598;50.954;3.112;2023-07-09T20:59:06;22.70;99.90
18932;DHT22;9598;50.954;3.112;2023-07-09T21:04:11;22.70;99.90
18932;DHT22;9598;50.954;3.112;2023-07-09T21:09:17;22.60;99.90
18932;DHT22;9598;50.954;3.112;2023-07-09T21:14:20;22.60;99.90
18932;DHT22;9598;50.954;3.112;2023-07-09T21:19:25;22.60;99.90
18932;DHT22;9598;50.954;3.112;2023-07-09T21:24:33;22.50;99.90
18932;DHT22;9598;50.954;3.112;2023-07-09T21:29:37;22.40;99.90
18932;DHT22;9598;50.954;3.112;2023-07-09T21:34:39;22.40;99.90
18932;DHT22;9598;50.954;3.112;2023-07-09T21:39:42;22.40;99.90
18932;DHT22;9598;50.954;3.112;2023-07-09T21:44:44;22.30;99.90
18932;DHT22;9598;50.954;3.112;2023-07-09T21:49:46;22.30;99.90
18932;DHT22;9598;50.954;3.112;2023-07-09T21:54:50;22.20;99.90
18932;DHT22;9598;50.954;3.112;2023-07-09T21:59:53;22.20;99.90
18932;DHT22;9598;50.954;3.112;2023-07-09T22:04:55;22.10;99.90
18932;DHT22;9598;50.954;3.112;2023-07-09T22:09:59;22.00;99.90
18932;DHT22;9598;50.954;3.112;2023-07-09T22:15:12;22.00;99.90
18932;DHT22;9598;50.954;3.112;2023-07-09T22:20:16;21.90;99.90
18932;DHT22;9598;50.954;3.112;2023-07-09T22:25:21;21.80;99.90
18932;DHT22;9598;50.954;3.112;2023-07-09T22:30:26;21.70;99.90
18932;DHT22;9598;50.954;3.112;2023-07-09T22:35:31;21.70;99.90
18932;DHT22;9598;50.954;3.112;2023-07-09T22:40:35;21.60;99.90
18932;DHT22;9598;50.954;3.112;2023-07-09T22:45:37;21.50;99.90
18932;DHT22;9598;50.954;3.112;2023-07-09T22:50:39;21.50;99.90
18932;DHT22;9598;50.954;3.112;2023-07-09T22:55:44;21.40;99.90
18932;DHT22;9598;50.954;3.112;2023-07-09T23:00:50;21.40;99.90
18932;DHT22;9598;50.954;3.112;2023-07-09T23:05:54;21.40;99.90
18932;DHT22;9598;50.954;3.112;2023-07-09T23:10:59;21.40;99.90
18932;DHT22;9598;50.954;3.112;2023-07-09T23:16:01;21.30;99.90
18932;DHT22;9598;50.954;3.112;2023-07-09T23:21:03;21.20;99.90
18932;DHT22;9598;50.954;3.112;2023-07-09T23:26:10;21.20;99.90
18932;DHT22;9598;50.954;3.112;2023-07-09T23:31:22;21.10;99.90
18932;DHT22;9598;50.954;3.112;2023-07-09T23:36:26;21.10;99.90
18932;DHT22;9598;50.954;3.112;2023-07-09T23:41:31;21.00;99.90
18932;DHT22;9598;50.954;3.112;2023-07-09T23:46:35;20.90;99.90
18932;DHT22;9598;50.954;3.112;2023-07-09T23:51:38;20.80;99.90
18932;DHT22;9598;50.954;3.112;2023-07-09T23:56:42;20.80;99.90
